Main page


Airports :

Baghdad, Iraq

Baghdad International Airport

latitude: 33-15-45N, longitude: 44-14-04E, elevation: 35 m

Current weather observation

The report was made 36 minutes ago, at 04:00 UTC
Calm wind
Temperature 13°C
Humidity 62%
Pressure 1013 hPa
Visibility 10 km or more
no clouds below 1500 m and no cumulonimbus

METAR: ORBI 170400Z 00000KT CAVOK 13/06 Q1013 NOSIG

Time: 07:36 (04:36 UTC)


The report was made 5 hours and 36 minutes ago, at 23:00 UTC
Forecast valid from 17 at 00 UTC to 17 at 24 UTC
Wind 10 kt from the Northwest
Visibility: 8000 m

TAF: ORBI 162300Z 1700/1724 31010KT 8000 NSC

Weather observations and forecasts of more than 4000 airports (METAR and TAF reports).

The available stations are represented by yellow and red dots on the map.

Hover mouse over dot to see the name of the station.

Then click to see weather observations and forecasts.

To change the map : click on the green buttons with a black cross to zoom in, on the green button with a dash to zoom out, or on the green arrows for adjacent maps.